Time;durP1;ratioP1;P1;durP2;ratioP2;P2;SDS_P1;SDS_P2;PMS_P1;PMS_P2;Temp;Humidity;BMP_temperature;BMP_pressure;BME280_temperature;BME280_humidity;BME280_pressure;Samples;Min_cycle;Max_cycle;Signal;HPM_P1;HPM_P2
2023/08/03 00:02:23;;;;;;;;;;;20.40;78.30;;;;;;5044538;28;19947;-53
2023/08/03 00:04:48;;;;;;;;;;;20.40;78.20;;;;;;5031431;28;19917;-53
2023/08/03 00:07:14;;;;;;;;;;;20.30;78.00;;;;;;5031757;28;19913;-53
2023/08/03 00:09:40;;;;;;;;;;;20.30;78.90;;;;;;5029888;28;19920;-53
2023/08/03 00:12:06;;;;;;;;;;;20.30;78.10;;;;;;5032217;28;19913;-53
2023/08/03 00:14:31;;;;;;;;;;;20.30;78.20;;;;;;5030828;28;19913;-53
2023/08/03 00:16:56;;;;;;;;;;;20.30;78.20;;;;;;5031839;28;19919;-54
2023/08/03 00:19:22;;;;;;;;;;;20.40;78.30;;;;;;5032206;28;20008;-53
2023/08/03 00:21:47;;;;;;;;;;;20.30;78.20;;;;;;5031495;28;20380;-53
2023/08/03 00:24:13;;;;;;;;;;;20.30;78.20;;;;;;5013608;28;19913;-54
2023/08/03 00:26:38;;;;;;;;;;;20.30;78.40;;;;;;5028846;28;20063;-54
2023/08/03 00:29:04;;;;;;;;;;;20.30;78.40;;;;;;5030284;28;19913;-53
2023/08/03 00:31:29;;;;;;;;;;;20.30;78.30;;;;;;5013617;28;19917;-54
2023/08/03 00:33:54;;;;;;;;;;;20.30;78.40;;;;;;5030466;28;19921;-53
2023/08/03 00:36:20;;;;;;;;;;;20.30;78.40;;;;;;5037796;28;19958;-53
2023/08/03 00:38:45;;;;;;;;;;;20.30;78.60;;;;;;5031182;28;19967;-53
2023/08/03 00:41:11;;;;;;;;;;;20.30;78.60;;;;;;5029273;28;19967;-53
2023/08/03 00:43:36;;;;;;;;;;;20.30;78.60;;;;;;5030701;28;19921;-53
2023/08/03 00:46:02;;;;;;;;;;;20.30;78.80;;;;;;5032171;28;19913;-54
2023/08/03 00:48:27;;;;;;;;;;;20.30;78.80;;;;;;5030656;28;19925;-53
2023/08/03 00:50:52;;;;;;;;;;;20.30;79.00;;;;;;5031040;28;19913;-53
2023/08/03 00:53:18;;;;;;;;;;;20.30;79.00;;;;;;5028525;28;20369;-54
2023/08/03 00:55:44;;;;;;;;;;;20.30;79.00;;;;;;5031579;28;20007;-53
2023/08/03 00:58:09;;;;;;;;;;;20.30;79.00;;;;;;5029885;28;19909;-54
2023/08/03 01:00:35;;;;;;;;;;;20.20;78.90;;;;;;5031476;28;20013;-54
2023/08/03 01:03:00;;;;;;;;;;;20.30;79.20;;;;;;5037781;28;19919;-54
2023/08/03 01:05:26;;;;;;;;;;;20.30;79.30;;;;;;5031016;28;20407;-53
2023/08/03 01:07:52;;;;;;;;;;;20.30;79.30;;;;;;5030929;28;19945;-53
2023/08/03 01:10:17;;;;;;;;;;;20.30;79.40;;;;;;5029154;28;19956;-53
2023/08/03 01:12:43;;;;;;;;;;;20.30;79.40;;;;;;5030057;28;19921;-53
2023/08/03 01:15:08;;;;;;;;;;;20.30;79.30;;;;;;5030096;28;19913;-54
2023/08/03 01:17:34;;;;;;;;;;;20.30;79.30;;;;;;5028712;28;19960;-53
2023/08/03 01:19:59;;;;;;;;;;;20.30;79.40;;;;;;5041895;28;19913;-53
2023/08/03 01:22:25;;;;;;;;;;;20.30;79.40;;;;;;5035507;28;19909;-53
2023/08/03 01:24:50;;;;;;;;;;;20.30;79.50;;;;;;5030408;28;19995;-53
2023/08/03 01:27:16;;;;;;;;;;;20.30;79.60;;;;;;5030960;28;19922;-53
2023/08/03 01:29:41;;;;;;;;;;;20.30;79.70;;;;;;5037874;28;19913;-54
2023/08/03 01:32:07;;;;;;;;;;;20.20;79.60;;;;;;5035821;28;19909;-55
2023/08/03 01:34:32;;;;;;;;;;;20.20;79.70;;;;;;5034587;28;19921;-54
2023/08/03 01:36:58;;;;;;;;;;;20.20;79.70;;;;;;5032351;28;20000;-54
2023/08/03 01:39:24;;;;;;;;;;;20.20;79.80;;;;;;5034530;28;20569;-54
2023/08/03 01:41:50;;;;;;;;;;;20.20;79.80;;;;;;5034324;28;19999;-54
2023/08/03 01:44:28;;;;;;;;;;;20.20;79.80;;;;;;5033604;28;20008;-55
2023/08/03 01:46:54;;;;;;;;;;;20.20;79.90;;;;;;5032676;28;19910;-54
2023/08/03 01:49:20;;;;;;;;;;;20.20;79.90;;;;;;5032333;28;19929;-54
2023/08/03 01:51:45;;;;;;;;;;;20.20;79.90;;;;;;5033956;28;20027;-54
2023/08/03 01:54:11;;;;;;;;;;;20.20;80.00;;;;;;5022711;28;19917;-55
2023/08/03 01:56:36;;;;;;;;;;;20.20;80.00;;;;;;5050437;28;19924;-54
2023/08/03 01:59:02;;;;;;;;;;;20.20;80.10;;;;;;5015152;28;19909;-53
2023/08/03 02:01:27;;;;;;;;;;;20.20;80.20;;;;;;5031827;28;19952;-54
2023/08/03 02:03:53;;;;;;;;;;;20.20;80.20;;;;;;5033996;28;20280;-54
2023/08/03 02:06:18;;;;;;;;;;;20.20;80.30;;;;;;5032156;28;19961;-54
2023/08/03 02:08:43;;;;;;;;;;;20.20;80.30;;;;;;5033911;28;19917;-55
2023/08/03 02:11:09;;;;;;;;;;;20.20;80.40;;;;;;5035617;28;20015;-54
2023/08/03 02:13:34;;;;;;;;;;;20.20;80.50;;;;;;5032985;28;19979;-53
2023/08/03 02:16:03;;;;;;;;;;;20.20;80.50;;;;;;5033890;28;19919;-53
2023/08/03 02:18:29;;;;;;;;;;;20.20;80.50;;;;;;5015735;28;19948;-54
2023/08/03 02:20:55;;;;;;;;;;;20.20;80.50;;;;;;5037922;28;19956;-53
2023/08/03 02:23:20;;;;;;;;;;;20.20;80.40;;;;;;5033401;28;20380;-54
2023/08/03 02:25:46;;;;;;;;;;;20.20;80.60;;;;;;5033254;28;19913;-53
2023/08/03 02:28:11;;;;;;;;;;;20.20;80.70;;;;;;5031906;28;19966;-54
2023/08/03 02:30:39;;;;;;;;;;;20.20;80.70;;;;;;5043688;28;19917;-55
2023/08/03 02:33:05;;;;;;;;;;;20.20;80.80;;;;;;5032967;28;19924;-54
2023/08/03 02:35:30;;;;;;;;;;;20.20;80.80;;;;;;5031958;28;19921;-55
2023/08/03 02:37:56;;;;;;;;;;;20.20;80.90;;;;;;5033249;28;20012;-54
2023/08/03 02:40:21;;;;;;;;;;;20.20;80.90;;;;;;5041372;28;19913;-53
2023/08/03 02:42:47;;;;;;;;;;;20.20;80.90;;;;;;5032826;28;19929;-54
2023/08/03 02:45:12;;;;;;;;;;;20.20;80.90;;;;;;5033347;28;19914;-54
2023/08/03 02:47:38;;;;;;;;;;;20.20;80.90;;;;;;5032981;28;19921;-54
2023/08/03 02:50:03;;;;;;;;;;;20.20;81.70;;;;;;5030292;28;19917;-53
2023/08/03 02:52:29;;;;;;;;;;;20.10;81.00;;;;;;5032061;28;19932;-54
2023/08/03 02:54:54;;;;;;;;;;;20.20;81.00;;;;;;5033019;28;19920;-54
2023/08/03 02:57:20;;;;;;;;;;;20.20;81.10;;;;;;5032790;28;19931;-54
2023/08/03 02:59:45;;;;;;;;;;;20.10;81.10;;;;;;5035006;28;19912;-53
2023/08/03 03:02:11;;;;;;;;;;;20.20;81.10;;;;;;5033221;28;20258;-53
2023/08/03 03:04:36;;;;;;;;;;;20.20;81.10;;;;;;5031093;28;19917;-54
2023/08/03 03:07:02;;;;;;;;;;;20.20;81.10;;;;;;5032766;28;19959;-53
2023/08/03 03:09:27;;;;;;;;;;;20.20;81.20;;;;;;5033858;28;19921;-54
2023/08/03 03:11:55;;;;;;;;;;;20.10;81.10;;;;;;5031680;28;19914;-54
2023/08/03 03:14:21;;;;;;;;;;;20.10;81.00;;;;;;5030945;28;20385;-54
2023/08/03 03:16:47;;;;;;;;;;;20.10;81.20;;;;;;5031015;28;19914;-54
2023/08/03 03:19:12;;;;;;;;;;;20.10;81.30;;;;;;5029978;28;19955;-53
2023/08/03 03:21:37;;;;;;;;;;;20.10;81.40;;;;;;5032651;28;19932;-54
2023/08/03 03:24:03;;;;;;;;;;;20.10;81.50;;;;;;5031905;28;19913;-53
2023/08/03 03:26:28;;;;;;;;;;;20.10;81.40;;;;;;5031947;28;19923;-55
2023/08/03 03:28:54;;;;;;;;;;;20.10;81.40;;;;;;5038218;28;19928;-54
2023/08/03 03:31:19;;;;;;;;;;;20.10;81.30;;;;;;5038360;28;19917;-54
2023/08/03 03:33:45;;;;;;;;;;;20.10;81.50;;;;;;5030430;28;19917;-53
2023/08/03 03:36:10;;;;;;;;;;;20.10;81.50;;;;;;5031378;28;20003;-53
2023/08/03 03:38:35;;;;;;;;;;;20.10;81.50;;;;;;5035790;28;19912;-53
2023/08/03 03:41:01;;;;;;;;;;;20.10;81.50;;;;;;5038414;28;19920;-54
2023/08/03 03:43:26;;;;;;;;;;;20.10;81.60;;;;;;5031491;28;20687;-54
2023/08/03 03:45:52;;;;;;;;;;;20.10;81.60;;;;;;5030230;28;20008;-54
2023/08/03 03:48:17;;;;;;;;;;;20.10;81.60;;;;;;5030463;28;20384;-54
2023/08/03 03:50:43;;;;;;;;;;;20.10;81.60;;;;;;5032179;28;20361;-55
2023/08/03 03:53:08;;;;;;;;;;;20.10;81.60;;;;;;5031127;28;19925;-55
2023/08/03 03:55:34;;;;;;;;;;;20.10;81.50;;;;;;5031668;28;19917;-54
2023/08/03 03:58:00;;;;;;;;;;;20.10;81.50;;;;;;5030861;28;19917;-54
2023/08/03 04:00:25;;;;;;;;;;;20.10;81.70;;;;;;5028425;28;20270;-53
2023/08/03 04:02:52;;;;;;;;;;;20.10;81.70;;;;;;5028070;28;19920;-54
2023/08/03 04:05:17;;;;;;;;;;;20.10;81.60;;;;;;5031208;28;19924;-54
2023/08/03 04:07:43;;;;;;;;;;;20.10;81.60;;;;;;5046070;28;19913;-54
2023/08/03 04:10:08;;;;;;;;;;;20.10;81.70;;;;;;5028183;28;19917;-53
2023/08/03 04:12:34;;;;;;;;;;;20.10;81.70;;;;;;5026337;28;19921;-54
2023/08/03 04:14:59;;;;;;;;;;;20.10;81.50;;;;;;5024652;28;19933;-54
2023/08/03 04:17:24;;;;;;;;;;;20.10;81.70;;;;;;5031967;28;19909;-53
2023/08/03 04:19:50;;;;;;;;;;;20.10;81.60;;;;;;5031194;28;19919;-54
2023/08/03 04:22:15;;;;;;;;;;;20.10;81.70;;;;;;5031566;28;20055;-53
2023/08/03 04:24:41;;;;;;;;;;;20.10;81.70;;;;;;5029409;28;22637;-54
2023/08/03 04:27:06;;;;;;;;;;;20.10;81.70;;;;;;5031926;28;19913;-54
2023/08/03 04:29:32;;;;;;;;;;;20.10;81.80;;;;;;5030542;28;19913;-53
2023/08/03 04:31:57;;;;;;;;;;;20.00;81.80;;;;;;5028398;28;19917;-54
2023/08/03 04:34:23;;;;;;;;;;;20.10;81.70;;;;;;5030868;28;19932;-54
2023/08/03 04:36:48;;;;;;;;;;;20.00;81.80;;;;;;5033293;28;19917;-53
2023/08/03 04:39:14;;;;;;;;;;;20.00;81.80;;;;;;5030998;28;19939;-56
2023/08/03 04:41:39;;;;;;;;;;;20.00;81.90;;;;;;5031316;28;19918;-55
2023/08/03 04:44:05;;;;;;;;;;;20.00;81.90;;;;;;5030606;28;20330;-54
2023/08/03 04:46:30;;;;;;;;;;;20.00;81.90;;;;;;5021592;28;19942;-54
2023/08/03 04:48:56;;;;;;;;;;;20.00;82.10;;;;;;5030632;28;19928;-54
2023/08/03 04:51:21;;;;;;;;;;;20.00;82.20;;;;;;5027734;28;19920;-54
2023/08/03 04:53:46;;;;;;;;;;;20.00;82.10;;;;;;5024747;28;19925;-54
2023/08/03 04:56:12;;;;;;;;;;;20.00;82.10;;;;;;5014027;28;19913;-54
2023/08/03 04:58:37;;;;;;;;;;;20.00;82.10;;;;;;5034652;28;19917;-54
2023/08/03 05:01:03;;;;;;;;;;;20.00;82.10;;;;;;5015406;28;19910;-54
2023/08/03 05:03:28;;;;;;;;;;;20.00;82.10;;;;;;5026351;28;19945;-54
2023/08/03 05:05:54;;;;;;;;;;;20.00;82.30;;;;;;5040118;28;19917;-54
2023/08/03 05:08:22;;;;;;;;;;;20.00;82.30;;;;;;5033083;28;19920;-54
2023/08/03 05:10:48;;;;;;;;;;;20.00;82.30;;;;;;5033512;28;19924;-55
2023/08/03 05:13:14;;;;;;;;;;;20.00;82.40;;;;;;5031289;28;19917;-53
2023/08/03 05:15:39;;;;;;;;;;;20.00;82.60;;;;;;5034449;28;20006;-54
2023/08/03 05:18:05;;;;;;;;;;;20.00;82.60;;;;;;5034218;28;19916;-55
2023/08/03 05:20:30;;;;;;;;;;;20.00;82.70;;;;;;5035087;28;19920;-54
2023/08/03 05:22:55;;;;;;;;;;;20.00;82.70;;;;;;5031942;28;19909;-55
2023/08/03 05:25:21;;;;;;;;;;;20.00;82.60;;;;;;5034876;28;19920;-56
2023/08/03 05:27:46;;;;;;;;;;;20.00;82.40;;;;;;5033281;28;19909;-54
2023/08/03 05:30:12;;;;;;;;;;;20.00;82.50;;;;;;5029838;28;20325;-54
2023/08/03 05:32:37;;;;;;;;;;;20.10;82.40;;;;;;5035295;28;19947;-54
2023/08/03 05:35:03;;;;;;;;;;;20.10;82.40;;;;;;5051090;28;20035;-54
2023/08/03 05:37:28;;;;;;;;;;;20.00;82.50;;;;;;5033087;28;20632;-54
2023/08/03 05:39:54;;;;;;;;;;;20.10;82.50;;;;;;5028194;28;20281;-55
2023/08/03 05:42:19;;;;;;;;;;;20.10;82.30;;;;;;5030125;28;19979;-54
2023/08/03 05:44:45;;;;;;;;;;;20.10;82.30;;;;;;5030863;28;19910;-54
2023/08/03 05:47:10;;;;;;;;;;;20.10;82.20;;;;;;5028259;28;19913;-55
2023/08/03 05:49:36;;;;;;;;;;;20.10;82.10;;;;;;5031565;28;20347;-54
2023/08/03 05:52:02;;;;;;;;;;;20.10;82.10;;;;;;5023232;28;20321;-55
2023/08/03 05:54:27;;;;;;;;;;;20.10;82.30;;;;;;5035263;28;20042;-54
2023/08/03 05:56:53;;;;;;;;;;;20.10;82.10;;;;;;5037628;28;19909;-54
2023/08/03 05:59:19;;;;;;;;;;;20.10;82.10;;;;;;5037051;28;19917;-55
2023/08/03 06:01:45;;;;;;;;;;;20.10;82.20;;;;;;5028702;28;19917;-54
2023/08/03 06:04:11;;;;;;;;;;;20.10;82.20;;;;;;5030027;28;19913;-54
2023/08/03 06:06:36;;;;;;;;;;;20.20;82.20;;;;;;5032297;28;19959;-54
2023/08/03 06:09:02;;;;;;;;;;;20.20;82.00;;;;;;5033795;28;19965;-54
2023/08/03 06:11:28;;;;;;;;;;;20.20;82.30;;;;;;5033051;28;20000;-55
2023/08/03 06:13:53;;;;;;;;;;;20.20;82.30;;;;;;5031727;28;20004;-54
2023/08/03 06:16:19;;;;;;;;;;;20.20;82.10;;;;;;5041805;28;19909;-54
2023/08/03 06:18:54;;;;;;;;;;;20.20;82.20;;;;;;5045337;28;19998;-55
2023/08/03 06:21:20;;;;;;;;;;;20.20;82.10;;;;;;5033920;28;19919;-55
2023/08/03 06:23:48;;;;;;;;;;;20.20;82.10;;;;;;5032131;28;19913;-54
2023/08/03 06:26:14;;;;;;;;;;;20.20;82.10;;;;;;5031811;28;19966;-54
2023/08/03 06:28:40;;;;;;;;;;;20.20;82.30;;;;;;5047151;28;19966;-55
2023/08/03 06:31:11;;;;;;;;;;;20.20;82.10;;;;;;5032425;28;19920;-55
2023/08/03 06:33:37;;;;;;;;;;;20.20;82.30;;;;;;5035887;28;19987;-54
2023/08/03 06:36:03;;;;;;;;;;;20.20;82.30;;;;;;5032818;28;19920;-55
2023/08/03 06:38:28;;;;;;;;;;;20.20;82.40;;;;;;5033957;28;20251;-55
2023/08/03 06:40:54;;;;;;;;;;;20.20;82.30;;;;;;5020767;28;19992;-54
2023/08/03 06:43:19;;;;;;;;;;;20.20;82.30;;;;;;5032445;28;19913;-54
2023/08/03 06:45:45;;;;;;;;;;;20.20;82.20;;;;;;5033119;28;20008;-55
2023/08/03 06:48:10;;;;;;;;;;;20.20;82.30;;;;;;5027353;28;19917;-55
2023/08/03 06:50:36;;;;;;;;;;;20.20;82.30;;;;;;5032135;28;19917;-55
2023/08/03 06:53:02;;;;;;;;;;;20.20;82.30;;;;;;5038773;28;20414;-55
2023/08/03 06:55:27;;;;;;;;;;;20.20;82.30;;;;;;5035960;28;19916;-55
2023/08/03 06:57:53;;;;;;;;;;;20.20;82.60;;;;;;5029989;28;19996;-54
2023/08/03 07:00:18;;;;;;;;;;;20.20;82.40;;;;;;5031955;28;19928;-55
2023/08/03 07:02:44;;;;;;;;;;;20.20;82.50;;;;;;5032618;28;20003;-55
2023/08/03 07:05:10;;;;;;;;;;;20.20;82.40;;;;;;5032790;28;19936;-55
2023/08/03 07:07:35;;;;;;;;;;;20.20;82.40;;;;;;5029289;28;19917;-54
2023/08/03 07:10:01;;;;;;;;;;;20.20;82.30;;;;;;5029284;28;20372;-54
2023/08/03 07:12:26;;;;;;;;;;;20.20;82.30;;;;;;5031024;28;19914;-54
2023/08/03 07:14:52;;;;;;;;;;;20.20;82.50;;;;;;5029523;28;19920;-54
2023/08/03 07:17:17;;;;;;;;;;;20.20;82.50;;;;;;5031186;28;19917;-55
2023/08/03 07:19:43;;;;;;;;;;;20.20;82.50;;;;;;5031784;28;19920;-54
2023/08/03 07:22:09;;;;;;;;;;;20.20;82.80;;;;;;5038835;28;19920;-54
2023/08/03 07:24:35;;;;;;;;;;;20.20;82.80;;;;;;5028233;28;19917;-53
2023/08/03 07:27:00;;;;;;;;;;;20.20;82.90;;;;;;5029621;28;19913;-53
2023/08/03 07:29:26;;;;;;;;;;;20.20;82.80;;;;;;5008561;28;19944;-55
2023/08/03 07:31:52;;;;;;;;;;;20.20;83.00;;;;;;5028783;28;19917;-54
2023/08/03 07:34:17;;;;;;;;;;;20.20;83.00;;;;;;5028378;28;19932;-55
2023/08/03 07:36:43;;;;;;;;;;;20.20;82.90;;;;;;5035657;28;19924;-55
2023/08/03 07:39:08;;;;;;;;;;;20.20;83.00;;;;;;5029103;28;19940;-55
2023/08/03 07:41:34;;;;;;;;;;;20.20;82.90;;;;;;5031576;28;20200;-54
2023/08/03 07:43:59;;;;;;;;;;;20.20;82.90;;;;;;5031450;28;19913;-55
2023/08/03 07:46:24;;;;;;;;;;;20.20;82.90;;;;;;5018093;28;19936;-54
2023/08/03 07:48:50;;;;;;;;;;;20.20;82.90;;;;;;5026241;28;19986;-54
2023/08/03 07:51:16;;;;;;;;;;;20.20;83.00;;;;;;5026924;28;19959;-54
2023/08/03 07:53:41;;;;;;;;;;;20.20;83.00;;;;;;5019974;28;19930;-54
2023/08/03 07:56:13;;;;;;;;;;;20.20;83.00;;;;;;5029904;28;19917;-54
2023/08/03 07:58:38;;;;;;;;;;;20.20;83.00;;;;;;5026402;28;19967;-54
2023/08/03 08:01:04;;;;;;;;;;;20.20;83.00;;;;;;5027379;28;19921;-55
2023/08/03 08:03:30;;;;;;;;;;;20.20;82.80;;;;;;5030323;28;19921;-54
2023/08/03 08:06:05;;;;;;;;;;;20.20;82.90;;;;;;5023214;28;19913;-54
2023/08/03 08:08:31;;;;;;;;;;;20.20;83.00;;;;;;5026951;28;20019;-54
2023/08/03 08:10:57;;;;;;;;;;;20.20;83.00;;;;;;5023616;28;20409;-54
2023/08/03 08:13:22;;;;;;;;;;;20.20;83.00;;;;;;5023288;28;20330;-55
2023/08/03 08:15:47;;;;;;;;;;;20.20;83.00;;;;;;5026396;28;20322;-55
2023/08/03 08:18:13;;;;;;;;;;;20.20;83.00;;;;;;5026743;28;19913;-54
2023/08/03 08:20:39;;;;;;;;;;;20.20;83.10;;;;;;5026483;28;19968;-54
2023/08/03 08:23:04;;;;;;;;;;;20.20;83.00;;;;;;5024841;28;19917;-55
2023/08/03 08:25:33;;;;;;;;;;;20.20;83.00;;;;;;5028022;28;19919;-54
2023/08/03 08:27:59;;;;;;;;;;;20.30;83.10;;;;;;5026759;28;19917;-53
2023/08/03 08:30:24;;;;;;;;;;;20.20;83.00;;;;;;5026552;28;19921;-54
2023/08/03 08:32:50;;;;;;;;;;;20.30;84.00;;;;;;5025962;28;19921;-53
2023/08/03 08:35:15;;;;;;;;;;;20.20;83.00;;;;;;5026348;28;20288;-55
2023/08/03 08:37:40;;;;;;;;;;;20.30;83.10;;;;;;5028063;28;20007;-55
2023/08/03 08:40:11;;;;;;;;;;;20.20;83.30;;;;;;5027146;28;19917;-55
2023/08/03 08:42:36;;;;;;;;;;;20.20;83.40;;;;;;5027455;28;19935;-55
2023/08/03 08:45:02;;;;;;;;;;;20.20;83.60;;;;;;5028040;28;20084;-54
2023/08/03 08:47:27;;;;;;;;;;;20.20;83.00;;;;;;5023604;28;19928;-54
2023/08/03 08:49:54;;;;;;;;;;;20.20;83.30;;;;;;5029714;28;20377;-55
2023/08/03 08:52:19;;;;;;;;;;;20.20;83.20;;;;;;5025863;28;19917;-54
2023/08/03 08:54:45;;;;;;;;;;;20.30;83.30;;;;;;5031106;28;19920;-53
2023/08/03 08:57:10;;;;;;;;;;;20.30;83.40;;;;;;5025086;28;20011;-54
2023/08/03 08:59:36;;;;;;;;;;;20.20;83.60;;;;;;5024286;28;19932;-54
2023/08/03 09:02:02;;;;;;;;;;;20.30;83.40;;;;;;5028108;28;19917;-55
2023/08/03 09:04:32;;;;;;;;;;;20.20;83.30;;;;;;5025717;28;19921;-53
2023/08/03 09:06:57;;;;;;;;;;;20.30;83.40;;;;;;5031013;28;19920;-54
2023/08/03 09:09:27;;;;;;;;;;;20.30;83.40;;;;;;5028528;28;19988;-54
2023/08/03 09:11:55;;;;;;;;;;;20.30;83.50;;;;;;5032779;28;19913;-53
2023/08/03 09:14:21;;;;;;;;;;;20.30;83.40;;;;;;5025188;28;19969;-54
2023/08/03 09:16:46;;;;;;;;;;;20.30;83.40;;;;;;5024495;28;20401;-54
2023/08/03 09:19:12;;;;;;;;;;;20.30;83.40;;;;;;5024570;28;19956;-54
2023/08/03 09:21:37;;;;;;;;;;;20.30;83.40;;;;;;5025430;28;19917;-54
2023/08/03 09:24:14;;;;;;;;;;;20.30;83.30;;;;;;5027231;28;19917;-53
2023/08/03 09:26:40;;;;;;;;;;;20.30;83.40;;;;;;5030285;28;20373;-54
2023/08/03 09:29:10;;;;;;;;;;;20.30;83.50;;;;;;5028967;28;19959;-53
2023/08/03 09:31:36;;;;;;;;;;;20.30;83.70;;;;;;5031056;28;20000;-53
2023/08/03 09:34:01;;;;;;;;;;;20.30;83.50;;;;;;5025967;28;20011;-55
2023/08/03 09:36:27;;;;;;;;;;;20.40;83.60;;;;;;5028518;28;19920;-54
2023/08/03 09:38:54;;;;;;;;;;;20.30;83.90;;;;;;5013060;28;19913;-55
2023/08/03 09:41:33;;;;;;;;;;;20.30;83.80;;;;;;5021336;28;19948;-53
2023/08/03 09:43:59;;;;;;;;;;;20.30;84.10;;;;;;5029214;28;19980;-53
2023/08/03 09:46:24;;;;;;;;;;;20.30;83.90;;;;;;5030710;28;19952;-54
2023/08/03 09:48:49;;;;;;;;;;;20.30;83.70;;;;;;5026407;28;19925;-54
2023/08/03 09:51:15;;;;;;;;;;;20.30;83.80;;;;;;5032029;28;19979;-53
2023/08/03 09:53:41;;;;;;;;;;;20.30;83.60;;;;;;5019553;28;19932;-53
2023/08/03 09:56:07;;;;;;;;;;;20.30;83.50;;;;;;5033654;28;19909;-54
2023/08/03 09:58:45;;;;;;;;;;;20.40;83.60;;;;;;5037408;28;19909;-54
2023/08/03 10:01:10;;;;;;;;;;;20.30;83.60;;;;;;5030631;28;19945;-54
2023/08/03 10:03:35;;;;;;;;;;;20.40;83.80;;;;;;5033194;28;20056;-53
2023/08/03 10:06:09;;;;;;;;;;;20.30;83.80;;;;;;5033907;28;19924;-54
2023/08/03 10:08:47;;;;;;;;;;;20.30;84.10;;;;;;5013950;28;20460;-54
2023/08/03 10:11:13;;;;;;;;;;;20.40;83.80;;;;;;5036827;28;20388;-53
2023/08/03 10:13:44;;;;;;;;;;;20.30;83.70;;;;;;5035555;28;19924;-53
2023/08/03 10:16:10;;;;;;;;;;;20.40;83.80;;;;;;5031366;28;20011;-54
2023/08/03 10:18:38;;;;;;;;;;;20.30;83.70;;;;;;5032618;28;20389;-53
2023/08/03 10:21:04;;;;;;;;;;;20.30;84.10;;;;;;5030824;28;20028;-53
2023/08/03 10:23:29;;;;;;;;;;;20.30;84.20;;;;;;5031414;28;19993;-53
2023/08/03 10:25:58;;;;;;;;;;;20.30;84.20;;;;;;5038528;28;20054;-53
2023/08/03 10:28:24;;;;;;;;;;;20.30;84.30;;;;;;5030723;28;19917;-54
2023/08/03 10:31:04;;;;;;;;;;;20.30;84.00;;;;;;5032689;28;19940;-54
2023/08/03 10:33:51;;;;;;;;;;;20.30;84.20;;;;;;5029025;28;19972;-53
2023/08/03 10:36:29;;;;;;;;;;;20.30;84.20;;;;;;5032850;28;19936;-53
2023/08/03 10:38:55;;;;;;;;;;;20.30;84.30;;;;;;5031221;28;21195;-54
2023/08/03 10:41:21;;;;;;;;;;;20.30;84.10;;;;;;5032222;28;20423;-54
2023/08/03 10:44:05;;;;;;;;;;;20.40;84.00;;;;;;5028568;28;19920;-55
2023/08/03 10:46:31;;;;;;;;;;;20.40;84.10;;;;;;5031621;28;19967;-54
2023/08/03 10:48:56;;;;;;;;;;;20.40;84.10;;;;;;5032588;28;19917;-54
2023/08/03 10:51:25;;;;;;;;;;;20.40;84.00;;;;;;5033176;28;19909;-54
2023/08/03 10:53:50;;;;;;;;;;;20.30;84.00;;;;;;5031071;28;19936;-54
2023/08/03 10:56:16;;;;;;;;;;;20.40;84.10;;;;;;5028700;28;19929;-55
2023/08/03 10:58:47;;;;;;;;;;;20.30;84.00;;;;;;5029977;28;19913;-54
2023/08/03 11:01:13;;;;;;;;;;;20.40;84.10;;;;;;5031099;28;19913;-53
2023/08/03 11:03:39;;;;;;;;;;;20.40;84.10;;;;;;5035497;28;19925;-53
2023/08/03 11:06:04;;;;;;;;;;;20.40;84.20;;;;;;5032305;28;19917;-54
2023/08/03 11:08:30;;;;;;;;;;;20.40;84.10;;;;;;5026510;28;20383;-54
2023/08/03 11:10:55;;;;;;;;;;;20.40;83.90;;;;;;5023599;28;19913;-54
2023/08/03 11:13:21;;;;;;;;;;;20.40;83.90;;;;;;5029259;28;19917;-53
2023/08/03 11:15:46;;;;;;;;;;;20.30;84.00;;;;;;5031931;28;19997;-55
2023/08/03 11:18:16;;;;;;;;;;;20.40;84.00;;;;;;5012880;28;19948;-54
2023/08/03 11:20:42;;;;;;;;;;;20.30;84.00;;;;;;5013524;28;20392;-53
2023/08/03 11:23:13;;;;;;;;;;;20.40;84.00;;;;;;5030005;28;19913;-54
2023/08/03 11:25:39;;;;;;;;;;;20.40;84.10;;;;;;5030065;28;20680;-54
2023/08/03 11:28:04;;;;;;;;;;;20.40;84.20;;;;;;5020353;28;19917;-54
2023/08/03 11:30:30;;;;;;;;;;;20.40;84.60;;;;;;5030385;28;19917;-55
2023/08/03 11:32:58;;;;;;;;;;;20.50;85.20;;;;;;5030736;28;19960;-54
2023/08/03 11:35:24;;;;;;;;;;;20.50;84.90;;;;;;5031389;28;20321;-54
2023/08/03 11:37:49;;;;;;;;;;;20.60;84.50;;;;;;5030188;28;19991;-54
2023/08/03 11:40:16;;;;;;;;;;;20.60;84.40;;;;;;5009600;28;20288;-53
2023/08/03 11:42:43;;;;;;;;;;;20.60;84.40;;;;;;5027445;28;19920;-55
2023/08/03 11:45:08;;;;;;;;;;;20.60;84.50;;;;;;5028376;28;20347;-54
2023/08/03 11:47:43;;;;;;;;;;;20.50;84.30;;;;;;5031827;28;19917;-53
2023/08/03 11:50:09;;;;;;;;;;;20.50;84.20;;;;;;5030993;28;20011;-54
2023/08/03 11:52:34;;;;;;;;;;;20.50;84.20;;;;;;5031592;28;20461;-54
2023/08/03 11:55:00;;;;;;;;;;;20.50;84.10;;;;;;5026294;28;19917;-53
2023/08/03 12:00:11;;;;;;;;;;;20.50;84.10;;;;;;5022784;28;19992;-54
2023/08/03 12:02:40;;;;;;;;;;;20.40;84.00;;;;;;5026203;28;19913;-54
2023/08/03 12:05:06;;;;;;;;;;;20.50;84.20;;;;;;5031710;28;20648;-54
2023/08/03 12:07:31;;;;;;;;;;;20.50;84.10;;;;;;5030427;28;19940;-53
2023/08/03 12:09:57;;;;;;;;;;;20.50;84.20;;;;;;5029816;28;19920;-54
2023/08/03 12:12:22;;;;;;;;;;;20.40;84.20;;;;;;5028667;28;19917;-54
2023/08/03 12:14:48;;;;;;;;;;;20.40;84.20;;;;;;5029390;28;20345;-54
2023/08/03 12:17:13;;;;;;;;;;;20.40;84.20;;;;;;5030653;28;19917;-54
2023/08/03 12:19:39;;;;;;;;;;;20.40;84.10;;;;;;5031466;28;19917;-54
2023/08/03 12:22:05;;;;;;;;;;;20.40;84.20;;;;;;5027920;28;19924;-54
2023/08/03 12:24:31;;;;;;;;;;;20.40;84.20;;;;;;5031214;28;20718;-53
2023/08/03 12:26:56;;;;;;;;;;;20.40;84.20;;;;;;5027866;28;19913;-54
2023/08/03 12:29:22;;;;;;;;;;;20.40;84.30;;;;;;5030639;28;19909;-54
2023/08/03 12:31:47;;;;;;;;;;;20.40;84.40;;;;;;5027879;28;19920;-53
2023/08/03 12:34:13;;;;;;;;;;;20.40;84.70;;;;;;5034121;28;20320;-53
2023/08/03 12:36:38;;;;;;;;;;;20.40;84.80;;;;;;5030904;28;19975;-54
2023/08/03 12:39:05;;;;;;;;;;;20.40;84.90;;;;;;5030889;28;19963;-53
2023/08/03 12:41:31;;;;;;;;;;;20.40;84.90;;;;;;5039493;28;19919;-55
2023/08/03 12:43:56;;;;;;;;;;;20.40;84.90;;;;;;5027647;28;19921;-53
2023/08/03 12:46:22;;;;;;;;;;;20.40;84.80;;;;;;5029871;28;19956;-53
2023/08/03 12:48:47;;;;;;;;;;;20.40;84.60;;;;;;5029444;28;19925;-53
2023/08/03 12:51:12;;;;;;;;;;;20.40;84.50;;;;;;5030103;28;20047;-54
2023/08/03 12:53:39;;;;;;;;;;;20.40;84.60;;;;;;5032798;28;19968;-53
2023/08/03 12:56:05;;;;;;;;;;;20.50;85.20;;;;;;5032986;28;19917;-54
2023/08/03 12:58:30;;;;;;;;;;;20.50;85.10;;;;;;5030594;28;19920;-54
2023/08/03 13:00:56;;;;;;;;;;;20.60;84.90;;;;;;5029224;28;19970;-53
2023/08/03 13:03:21;;;;;;;;;;;20.60;84.50;;;;;;5027468;28;19959;-54
2023/08/03 13:05:47;;;;;;;;;;;20.70;84.30;;;;;;5029575;28;20284;-54
2023/08/03 13:08:12;;;;;;;;;;;20.70;84.20;;;;;;5030707;28;19917;-54
2023/08/03 13:10:38;;;;;;;;;;;20.70;84.30;;;;;;5029335;28;19920;-54
2023/08/03 13:13:04;;;;;;;;;;;20.70;84.20;;;;;;5029717;28;19925;-53
2023/08/03 13:15:29;;;;;;;;;;;20.80;84.20;;;;;;5030299;28;19917;-53
2023/08/03 13:17:55;;;;;;;;;;;20.80;84.20;;;;;;5027917;28;20534;-54
2023/08/03 13:20:20;;;;;;;;;;;20.80;84.20;;;;;;5026709;28;19927;-54
2023/08/03 13:22:45;;;;;;;;;;;20.80;84.10;;;;;;5027707;28;20439;-53
2023/08/03 13:25:11;;;;;;;;;;;20.80;84.10;;;;;;5023790;28;19920;-53
2023/08/03 13:27:36;;;;;;;;;;;20.80;84.20;;;;;;5031502;28;20007;-53
2023/08/03 13:30:02;;;;;;;;;;;20.70;84.20;;;;;;5028147;28;19921;-53
2023/08/03 13:32:27;;;;;;;;;;;20.70;84.40;;;;;;5028955;28;19921;-54
2023/08/03 13:34:53;;;;;;;;;;;20.70;84.60;;;;;;5030857;28;20425;-53
2023/08/03 13:37:18;;;;;;;;;;;20.70;84.70;;;;;;5034426;28;20441;-54
2023/08/03 13:39:44;;;;;;;;;;;20.60;84.70;;;;;;5032514;28;19984;-53
2023/08/03 13:42:09;;;;;;;;;;;20.60;84.80;;;;;;5034528;28;19918;-54
2023/08/03 13:44:34;;;;;;;;;;;20.70;85.20;;;;;;5032975;28;19917;-53
2023/08/03 13:47:03;;;;;;;;;;;20.70;85.10;;;;;;5033383;28;19971;-53
2023/08/03 13:49:31;;;;;;;;;;;20.70;85.00;;;;;;5033846;28;19925;-53
2023/08/03 13:51:57;;;;;;;;;;;20.80;85.10;;;;;;5031305;28;19948;-53
2023/08/03 13:54:23;;;;;;;;;;;20.80;85.00;;;;;;5035706;28;19972;-53
2023/08/03 13:56:48;;;;;;;;;;;20.90;85.10;;;;;;5033781;28;19917;-53
2023/08/03 13:59:13;;;;;;;;;;;20.90;84.90;;;;;;5030729;28;20369;-53
2023/08/03 14:01:39;;;;;;;;;;;21.00;84.70;;;;;;5032204;28;19921;-53
2023/08/03 14:04:05;;;;;;;;;;;21.00;84.60;;;;;;5033359;28;20015;-54
2023/08/03 14:06:31;;;;;;;;;;;21.00;84.40;;;;;;5032793;28;19920;-54
2023/08/03 14:08:57;;;;;;;;;;;21.00;84.30;;;;;;5031507;28;19936;-54
2023/08/03 14:11:23;;;;;;;;;;;21.00;84.30;;;;;;5034373;28;19914;-54
2023/08/03 14:13:48;;;;;;;;;;;21.00;84.30;;;;;;5032739;28;19970;-54